createdAt,value
2023-08-07T00:01:18.805Z,99201.78
2023-08-07T00:04:21.565Z,99200.19
2023-08-07T00:07:25.790Z,99209.00
2023-08-07T00:10:28.659Z,99215.94
2023-08-07T00:13:31.102Z,99220.19
2023-08-07T00:16:33.724Z,99216.38
2023-08-07T00:19:36.449Z,99228.34
2023-08-07T00:22:39.153Z,99231.28
2023-08-07T00:25:41.895Z,99236.28
2023-08-07T00:28:44.840Z,99236.22
2023-08-07T00:31:47.448Z,99230.56
2023-08-07T00:34:50.726Z,99248.31
2023-08-07T00:37:53.370Z,99248.41
2023-08-07T00:40:56.200Z,99255.19
2023-08-07T00:43:58.777Z,99256.75
2023-08-07T00:47:01.466Z,99262.41
2023-08-07T00:50:05.468Z,99263.38
2023-08-07T00:53:08.158Z,99262.66
2023-08-07T00:56:11.165Z,99267.25
2023-08-07T00:59:16.034Z,99266.28
2023-08-07T01:02:18.626Z,99273.66
2023-08-07T01:05:25.307Z,99259.72
2023-08-07T01:08:28.822Z,99262.34
2023-08-07T01:11:45.007Z,99258.75
2023-08-07T01:14:56.437Z,99259.38
2023-08-07T01:18:00.711Z,99274.28
2023-08-07T01:21:04.860Z,99272.41
2023-08-07T01:24:07.587Z,99281.59
2023-08-07T01:27:38.377Z,99272.44
2023-08-07T01:30:44.132Z,99273.63
2023-08-07T01:34:03.247Z,99282.81
2023-08-07T01:37:08.685Z,99273.91
2023-08-07T01:40:13.511Z,99285.09
2023-08-07T01:43:16.204Z,99288.19
2023-08-07T01:46:19.607Z,99280.34
2023-08-07T01:49:24.024Z,99285.56
2023-08-07T01:52:26.828Z,99282.94
2023-08-07T01:55:30.319Z,99295.53
2023-08-07T01:58:33.129Z,99294.97
2023-08-07T02:01:35.755Z,99297.63
2023-08-07T02:04:38.658Z,99297.47
2023-08-07T02:07:42.274Z,99295.25
2023-08-07T02:10:45.076Z,99301.75
2023-08-07T02:13:47.686Z,99300.16
2023-08-07T02:16:50.180Z,99296.56
2023-08-07T02:19:52.986Z,99298.78
2023-08-07T02:22:55.610Z,99299.88
2023-08-07T02:25:58.294Z,99303.75
2023-08-07T02:29:00.945Z,99302.75
2023-08-07T02:32:04.089Z,99307.72
2023-08-07T02:35:07.930Z,99315.69
2023-08-07T02:38:11.085Z,99310.31
2023-08-07T02:41:13.923Z,99314.72
2023-08-07T02:44:18.530Z,99319.47
2023-08-07T02:47:21.004Z,99321.44
2023-08-07T02:50:25.731Z,99324.78
2023-08-07T02:53:28.410Z,99326.69
2023-08-07T02:56:31.257Z,99320.25
2023-08-07T02:59:33.930Z,99324.63
2023-08-07T03:02:36.479Z,99323.19
2023-08-07T03:05:39.264Z,99320.47
2023-08-07T03:08:42.166Z,99319.78
2023-08-07T03:11:44.628Z,99332.31
2023-08-07T03:14:47.486Z,99322.91
2023-08-07T03:17:49.917Z,99334.88
2023-08-07T03:20:52.839Z,99337.81
2023-08-07T03:23:55.468Z,99345.31
2023-08-07T03:26:58.190Z,99356.19
2023-08-07T03:30:01.324Z,99366.56
2023-08-07T03:33:05.936Z,99367.53
2023-08-07T03:36:08.600Z,99366.63
2023-08-07T03:39:13.142Z,99355.25
2023-08-07T03:42:16.538Z,99356.44
2023-08-07T03:45:21.722Z,99364.34
2023-08-07T03:48:24.280Z,99356.59
2023-08-07T03:51:27.380Z,99369.50
2023-08-07T03:54:30.847Z,99363.72
2023-08-07T03:57:34.779Z,99373.03
2023-08-07T04:00:37.730Z,99376.59
2023-08-07T04:03:40.278Z,99384.13
2023-08-07T04:06:44.722Z,99383.53
2023-08-07T04:09:47.546Z,99378.88
2023-08-07T04:12:50.919Z,99385.22
2023-08-07T04:15:53.666Z,99391.78
2023-08-07T04:18:56.126Z,99386.28
2023-08-07T04:21:58.776Z,99388.34
2023-08-07T04:25:01.558Z,99387.19
2023-08-07T04:28:04.516Z,99387.41
2023-08-07T04:31:07.573Z,99392.56
2023-08-07T04:34:10.043Z,99391.78
2023-08-07T04:37:12.730Z,99387.00
2023-08-07T04:40:15.572Z,99390.47
2023-08-07T04:43:21.835Z,99398.69
2023-08-07T04:46:24.632Z,99400.00
2023-08-07T04:49:27.050Z,99402.34
2023-08-07T04:52:29.605Z,99417.88
2023-08-07T04:55:32.950Z,99414.03
2023-08-07T04:58:35.370Z,99413.63
2023-08-07T05:02:50.261Z,99409.72
2023-08-07T05:05:59.470Z,99404.59
2023-08-07T05:09:02.322Z,99413.78
2023-08-07T05:12:06.361Z,99410.91
2023-08-07T05:15:09.116Z,99412.25
2023-08-07T05:18:11.551Z,99411.94
2023-08-07T05:21:14.165Z,99411.78
2023-08-07T05:24:17.078Z,99411.84
2023-08-07T05:27:19.746Z,99414.25
2023-08-07T05:30:22.244Z,99419.72
2023-08-07T05:33:25.010Z,99429.78
2023-08-07T05:36:27.580Z,99428.25
2023-08-07T05:39:30.564Z,99425.88
2023-08-07T05:42:33.069Z,99422.03
2023-08-07T05:45:35.534Z,99425.97
2023-08-07T05:48:37.961Z,99429.88
2023-08-07T05:51:40.566Z,99434.50
2023-08-07T05:54:43.094Z,99433.78
2023-08-07T05:57:45.565Z,99446.09
2023-08-07T06:00:48.150Z,99429.88
2023-08-07T06:03:50.623Z,99439.91
2023-08-07T06:06:53.274Z,99443.72
2023-08-07T06:09:55.994Z,99451.34
2023-08-07T06:12:59.030Z,99449.03
2023-08-07T06:16:01.657Z,99449.34
2023-08-07T06:19:10.729Z,99458.06
2023-08-07T06:22:19.958Z,99453.28
2023-08-07T06:25:22.560Z,99461.84
2023-08-07T06:28:25.562Z,99469.63
2023-08-07T06:31:28.144Z,99463.50
2023-08-07T06:34:30.765Z,99462.34
2023-08-07T06:37:33.197Z,99463.91
2023-08-07T06:40:39.269Z,99473.47
2023-08-07T06:43:41.802Z,99475.59
2023-08-07T06:46:44.281Z,99478.84
2023-08-07T06:49:46.728Z,99479.28
2023-08-07T06:52:49.617Z,99485.13
2023-08-07T06:55:52.921Z,99484.31
2023-08-07T06:58:56.339Z,99481.69
2023-08-07T07:01:59.224Z,99487.56
2023-08-07T07:05:01.969Z,99487.97
2023-08-07T07:08:04.633Z,99488.75
2023-08-07T07:11:08.422Z,99488.75
2023-08-07T07:14:11.850Z,99488.00
2023-08-07T07:17:14.418Z,99484.47
2023-08-07T07:20:16.885Z,99481.09
2023-08-07T07:23:19.447Z,99482.31
2023-08-07T07:26:22.632Z,99485.28
2023-08-07T07:29:25.110Z,99478.75
2023-08-07T07:32:27.874Z,99480.22
2023-08-07T07:35:30.391Z,99488.03
2023-08-07T07:38:32.948Z,99493.63
2023-08-07T07:41:35.511Z,99489.44
2023-08-07T07:44:39.788Z,99499.13
2023-08-07T07:47:42.270Z,99499.06
2023-08-07T07:50:44.653Z,99500.22
2023-08-07T07:54:40.043Z,99501.31
2023-08-07T07:57:42.655Z,99502.97
2023-08-07T08:00:45.101Z,99507.59
2023-08-07T08:03:47.788Z,99517.16
2023-08-07T08:06:50.334Z,99522.34
2023-08-07T08:09:53.191Z,99519.22
2023-08-07T08:12:57.001Z,99528.75
2023-08-07T08:15:59.704Z,99526.81
2023-08-07T08:19:03.327Z,99532.34
2023-08-07T08:22:06.141Z,99531.41
2023-08-07T08:25:09.418Z,99533.94
2023-08-07T08:28:11.905Z,99535.72
2023-08-07T08:31:14.398Z,99533.69
2023-08-07T08:34:16.911Z,99530.97
2023-08-07T08:37:19.342Z,99540.16
2023-08-07T08:40:22.044Z,99551.13
2023-08-07T08:43:26.350Z,99538.38
2023-08-07T08:46:30.803Z,99528.34
2023-08-07T08:49:48.703Z,99541.91
2023-08-07T08:52:52.819Z,99545.78
2023-08-07T08:55:55.412Z,99544.41
2023-08-07T08:59:01.976Z,99548.44
2023-08-07T09:02:04.821Z,99549.41
2023-08-07T09:05:07.851Z,99547.56
2023-08-07T09:08:11.158Z,99539.88
2023-08-07T09:11:14.896Z,99549.25
2023-08-07T09:14:18.709Z,99544.63
2023-08-07T09:17:33.271Z,99544.19
2023-08-07T09:20:37.219Z,99548.31
2023-08-07T09:23:39.612Z,99559.31
2023-08-07T09:26:46.328Z,99553.03
2023-08-07T09:29:49.598Z,99545.34
2023-08-07T09:32:52.006Z,99551.25
2023-08-07T09:36:07.241Z,99556.84
2023-08-07T09:39:09.841Z,99562.72
2023-08-07T09:42:17.999Z,99566.22
2023-08-07T09:45:25.596Z,99565.63
2023-08-07T09:48:29.086Z,99573.09
2023-08-07T09:51:43.842Z,99572.63
2023-08-07T09:54:46.531Z,99572.16
2023-08-07T09:57:49.817Z,99579.84
2023-08-07T10:01:00.303Z,99582.78
2023-08-07T10:04:06.156Z,99580.00
2023-08-07T10:07:08.709Z,99579.81
2023-08-07T10:10:11.801Z,99585.09
2023-08-07T10:13:16.070Z,99587.41
2023-08-07T10:16:21.059Z,99593.50
2023-08-07T10:19:23.967Z,99584.88
2023-08-07T10:22:28.310Z,99598.13
2023-08-07T10:25:31.709Z,99597.66
2023-08-07T10:28:39.053Z,99612.03
2023-08-07T10:31:45.134Z,99613.81
2023-08-07T10:34:48.428Z,99614.47
2023-08-07T10:37:53.363Z,99624.13
2023-08-07T10:41:15.291Z,99628.63
2023-08-07T10:44:25.786Z,99624.84
2023-08-07T10:47:35.518Z,99633.19
2023-08-07T10:50:58.032Z,99638.91
2023-08-07T10:54:02.694Z,99646.31
2023-08-07T10:57:10.894Z,99645.41
2023-08-07T11:00:14.009Z,99639.06
2023-08-07T11:03:29.593Z,99650.72
2023-08-07T11:06:34.093Z,99651.59
2023-08-07T11:09:37.011Z,99650.03
2023-08-07T11:12:39.515Z,99654.56
2023-08-07T11:15:42.101Z,99658.94
2023-08-07T11:18:44.806Z,99659.31
2023-08-07T11:21:48.931Z,99672.13
2023-08-07T11:24:52.525Z,99674.91
2023-08-07T11:27:55.252Z,99672.81
2023-08-07T11:30:58.376Z,99682.34
2023-08-07T11:34:03.711Z,99687.81
2023-08-07T11:37:06.351Z,99680.19
2023-08-07T11:40:09.542Z,99689.81
2023-08-07T11:43:12.110Z,99669.47
2023-08-07T11:46:16.538Z,99698.13
2023-08-07T11:49:19.676Z,99692.31
2023-08-07T11:52:23.976Z,99699.63
2023-08-07T11:55:26.696Z,99703.75
2023-08-07T11:58:36.042Z,99695.84
2023-08-07T12:01:39.779Z,99702.63
2023-08-07T12:04:42.671Z,99704.09
2023-08-07T12:07:45.105Z,99701.22
2023-08-07T12:10:56.870Z,99715.22
2023-08-07T12:14:02.665Z,99713.09
2023-08-07T12:17:05.735Z,99715.13
2023-08-07T12:20:11.776Z,99732.47
2023-08-07T12:23:18.003Z,99725.13
2023-08-07T12:26:20.721Z,99725.00
2023-08-07T12:29:24.731Z,99717.44
2023-08-07T12:32:27.287Z,99717.84
2023-08-07T12:35:30.018Z,99729.88
2023-08-07T12:39:02.061Z,99738.31
2023-08-07T12:49:16.129Z,99743.25
2023-08-07T12:58:30.547Z,99747.97
2023-08-07T13:01:33.204Z,99750.78
2023-08-07T13:04:37.529Z,99754.09
2023-08-07T13:07:40.587Z,99746.00
2023-08-07T13:10:43.271Z,99747.44
2023-08-07T13:13:45.756Z,99761.06
2023-08-07T13:16:50.621Z,99746.41
2023-08-07T13:19:53.176Z,99755.63
2023-08-07T13:22:57.630Z,99744.41
2023-08-07T13:26:00.123Z,99746.91
2023-08-07T13:29:02.785Z,99768.44
2023-08-07T13:32:10.693Z,99761.13
2023-08-07T13:35:13.278Z,99754.09
2023-08-07T13:38:17.463Z,99755.25
2023-08-07T13:41:19.904Z,99756.44
2023-08-07T13:44:42.563Z,99763.69
2023-08-07T13:47:45.270Z,99771.47
2023-08-07T13:50:50.236Z,99777.66
2023-08-07T13:53:53.841Z,99784.63
2023-08-07T13:58:32.068Z,99786.94
2023-08-07T14:01:36.145Z,99788.13
2023-08-07T14:04:38.634Z,99793.53
2023-08-07T14:07:41.152Z,99778.84
2023-08-07T14:10:43.649Z,99779.16
2023-08-07T14:13:47.524Z,99779.97
2023-08-07T14:16:50.091Z,99773.31
2023-08-07T14:19:52.494Z,99776.47
2023-08-07T14:23:02.895Z,99785.34
2023-08-07T14:26:11.379Z,99788.38
2023-08-07T14:29:14.859Z,99784.63
2023-08-07T14:32:17.354Z,99788.91
2023-08-07T14:35:23.455Z,99793.91
2023-08-07T14:38:25.857Z,99790.31
2023-08-07T14:41:28.551Z,99795.06
2023-08-07T14:44:31.062Z,99801.59
2023-08-07T14:47:33.782Z,99794.31
2023-08-07T14:50:38.702Z,99801.25
2023-08-07T14:53:41.733Z,99803.97
2023-08-07T14:56:44.537Z,99796.63
2023-08-07T14:59:46.998Z,99809.75
2023-08-07T15:02:50.170Z,99809.16
2023-08-07T15:05:52.762Z,99814.19
2023-08-07T15:08:55.183Z,99806.94
2023-08-07T15:11:58.080Z,99812.72
2023-08-07T15:15:00.775Z,99814.28
2023-08-07T15:18:06.703Z,99814.25
2023-08-07T15:21:09.221Z,99808.81
2023-08-07T15:24:11.964Z,99808.81
2023-08-07T15:27:14.457Z,99807.97
2023-08-07T15:30:17.112Z,99798.38
2023-08-07T15:33:20.849Z,99805.97
2023-08-07T15:36:25.380Z,99806.22
2023-08-07T15:39:28.476Z,99810.88
2023-08-07T15:42:31.109Z,99824.06
2023-08-07T15:45:33.603Z,99812.22
2023-08-07T15:48:36.961Z,99806.47
2023-08-07T15:51:39.808Z,99821.13
